Time;durP1;ratioP1;P1;durP2;ratioP2;P2;SDS_P1;SDS_P2;PMS_P1;PMS_P2;Temp;Humidity;BMP_temperature;BMP_pressure;BME280_temperature;BME280_humidity;BME280_pressure;Samples;Min_cycle;Max_cycle;Signal;HPM_P1;HPM_P2
2024/01/05 00:01:43;;;;;;;280.57;261.47;;;2.90;99.90;;;;;;5060533;28;20048;-77
2024/01/05 00:04:08;;;;;;;212.85;197.45;;;2.90;99.90;;;;;;5072173;28;20544;-77
2024/01/05 00:06:38;;;;;;;282.93;261.17;;;2.90;99.90;;;;;;5074267;28;20036;-77
2024/01/05 00:09:04;;;;;;;159.93;149.27;;;2.90;99.90;;;;;;5060902;28;20118;-77
2024/01/05 00:11:30;;;;;;;183.75;170.90;;;2.90;99.90;;;;;;5056077;28;20041;-76
2024/01/05 00:13:56;;;;;;;216.97;202.90;;;2.90;99.90;;;;;;5076545;28;20078;-77
2024/01/05 00:16:22;;;;;;;227.63;212.80;;;2.90;99.90;;;;;;5068946;28;20068;-76
2024/01/05 00:18:49;;;;;;;150.13;140.07;;;2.90;99.90;;;;;;5056329;28;20039;-77
2024/01/05 00:21:22;;;;;;;223.18;208.35;;;2.90;99.90;;;;;;5072468;28;20221;-77
2024/01/05 00:23:49;;;;;;;254.55;237.65;;;2.90;99.90;;;;;;5078553;28;20397;-77
2024/01/05 00:26:14;;;;;;;233.98;219.80;;;2.90;99.90;;;;;;5058568;28;20047;-77
2024/01/05 00:28:40;;;;;;;187.87;175.73;;;2.80;99.90;;;;;;5077091;28;20055;-76
2024/01/05 00:31:09;;;;;;;197.30;184.63;;;2.80;99.90;;;;;;5063879;28;20123;-77
2024/01/05 00:33:35;;;;;;;158.25;148.07;;;2.80;99.90;;;;;;5083476;28;20032;-76
2024/01/05 00:36:02;;;;;;;167.23;156.33;;;2.80;99.90;;;;;;5077608;28;20371;-77
2024/01/05 00:38:28;;;;;;;226.93;212.20;;;2.80;99.90;;;;;;5081231;28;20048;-77
2024/01/05 00:40:54;;;;;;;207.15;193.85;;;2.70;99.90;;;;;;5070289;28;20039;-76
2024/01/05 00:43:19;;;;;;;150.80;140.70;;;2.70;99.90;;;;;;5086820;28;20036;-76
2024/01/05 00:45:45;;;;;;;195.90;182.90;;;2.70;99.90;;;;;;5079456;28;20415;-76
2024/01/05 00:48:11;;;;;;;194.83;182.20;;;2.70;99.90;;;;;;5077639;28;20067;-76
2024/01/05 00:50:36;;;;;;;244.83;228.90;;;2.70;99.90;;;;;;5084385;28;20093;-77
2024/01/05 00:53:02;;;;;;;273.43;255.40;;;2.70;99.90;;;;;;5085495;28;20855;-76
2024/01/05 00:55:28;;;;;;;267.93;249.23;;;2.70;99.90;;;;;;5063508;28;20032;-77
2024/01/05 00:57:54;;;;;;;187.27;175.37;;;2.60;99.90;;;;;;5073179;28;20289;-77
2024/01/05 01:00:19;;;;;;;176.80;165.20;;;2.60;99.90;;;;;;5078542;28;20028;-76
2024/01/05 01:02:45;;;;;;;264.30;246.63;;;2.60;99.90;;;;;;5065965;28;20139;-77
2024/01/05 01:05:11;;;;;;;173.70;163.13;;;2.60;99.90;;;;;;5060762;28;20093;-76
2024/01/05 01:07:40;;;;;;;219.17;205.47;;;2.60;99.90;;;;;;5076294;28;20043;-76
2024/01/05 01:10:06;;;;;;;222.25;207.15;;;2.60;99.90;;;;;;5075008;28;20458;-76
2024/01/05 01:12:32;;;;;;;210.00;196.83;;;2.60;99.90;;;;;;5068936;28;20040;-76
2024/01/05 01:14:58;;;;;;;171.67;160.70;;;2.60;99.90;;;;;;5085614;28;20763;-76
2024/01/05 01:17:23;;;;;;;224.20;209.37;;;2.60;99.90;;;;;;5081200;28;20043;-76
2024/01/05 01:19:49;;;;;;;235.60;219.83;;;2.60;99.90;;;;;;5083973;28;20645;-76
2024/01/05 01:22:15;;;;;;;251.87;234.33;;;2.60;99.90;;;;;;5077231;28;20346;-76
2024/01/05 01:24:41;;;;;;;188.13;175.87;;;2.60;99.90;;;;;;5083249;28;20130;-76
2024/01/05 01:27:06;;;;;;;190.30;178.60;;;2.60;99.90;;;;;;5065982;28;20312;-75
2024/01/05 01:29:32;;;;;;;218.00;204.33;;;2.60;99.90;;;;;;5072620;28;20048;-76
2024/01/05 01:31:58;;;;;;;200.80;187.47;;;2.60;99.90;;;;;;5066282;28;20436;-75
2024/01/05 01:34:24;;;;;;;181.03;169.37;;;2.60;99.90;;;;;;5071371;28;20258;-75
2024/01/05 01:36:51;;;;;;;154.23;144.57;;;2.50;99.90;;;;;;5061061;28;20040;-75
2024/01/05 01:39:16;;;;;;;234.13;218.52;;;2.50;99.90;;;;;;5064355;28;20066;-75
2024/01/05 01:41:42;;;;;;;180.73;169.43;;;2.60;99.90;;;;;;5054469;28;20339;-75
2024/01/05 01:44:08;;;;;;;199.27;186.60;;;2.50;99.90;;;;;;5065987;28;20028;-75
2024/01/05 01:46:36;;;;;;;246.27;230.03;;;2.50;99.90;;;;;;5087546;28;20117;-76
2024/01/05 01:49:04;;;;;;;242.40;226.63;;;2.60;99.90;;;;;;5083070;28;20051;-76
2024/01/05 01:51:31;;;;;;;167.65;156.52;;;2.50;99.90;;;;;;5083494;28;20079;-76
2024/01/05 01:54:04;;;;;;;208.88;195.80;;;2.50;99.90;;;;;;5082269;28;20052;-76
2024/01/05 01:56:32;;;;;;;193.00;181.23;;;2.50;99.90;;;;;;5072379;28;20037;-76
2024/01/05 01:58:57;;;;;;;169.02;158.02;;;2.50;99.90;;;;;;5074232;28;20474;-76
2024/01/05 02:01:24;;;;;;;206.53;193.00;;;2.50;99.90;;;;;;5077802;28;20094;-76
2024/01/05 02:03:50;;;;;;;218.80;204.25;;;2.50;99.90;;;;;;5076309;28;20040;-76
2024/01/05 02:06:16;;;;;;;348.02;322.23;;;2.50;99.90;;;;;;5084083;28;20040;-76
2024/01/05 02:08:43;;;;;;;262.23;245.13;;;2.50;99.90;;;;;;5072346;28;20048;-76
2024/01/05 02:11:09;;;;;;;179.38;167.80;;;2.50;99.90;;;;;;5074527;28;20104;-76
2024/01/05 02:13:34;;;;;;;232.30;217.50;;;2.50;99.90;;;;;;5078924;28;20122;-76
2024/01/05 02:16:00;;;;;;;225.33;209.57;;;2.50;99.90;;;;;;5083440;28;20109;-76
2024/01/05 02:18:26;;;;;;;204.33;190.80;;;2.50;99.90;;;;;;5079120;28;20044;-76
2024/01/05 02:20:51;;;;;;;167.63;156.60;;;2.50;99.90;;;;;;5071205;28;20044;-76
2024/01/05 02:23:24;;;;;;;148.97;139.60;;;2.50;99.90;;;;;;5084073;28;20048;-76
2024/01/05 02:25:50;;;;;;;202.38;190.07;;;2.50;99.90;;;;;;5055329;28;20595;-76
2024/01/05 02:28:15;;;;;;;192.43;179.90;;;2.40;99.90;;;;;;5076393;28;20052;-77
2024/01/05 02:30:41;;;;;;;230.53;215.43;;;2.50;99.90;;;;;;5072044;28;20309;-76
2024/01/05 02:33:07;;;;;;;336.80;310.97;;;2.50;99.90;;;;;;5056036;28;20275;-76
2024/01/05 02:35:32;;;;;;;184.80;172.70;;;2.50;99.90;;;;;;5082699;28;20036;-77
2024/01/05 02:37:58;;;;;;;179.10;167.53;;;2.50;99.90;;;;;;5073218;28;20037;-76
2024/01/05 02:40:24;;;;;;;210.27;196.47;;;2.50;99.90;;;;;;5058574;28;20036;-77
2024/01/05 02:42:49;;;;;;;198.77;185.90;;;2.50;99.90;;;;;;5078472;28;20458;-77
2024/01/05 02:45:20;;;;;;;278.63;259.70;;;2.50;99.90;;;;;;5079056;28;20040;-77
2024/01/05 02:47:48;;;;;;;218.43;204.02;;;2.50;99.90;;;;;;5075303;28;20346;-77
2024/01/05 02:50:14;;;;;;;219.43;204.82;;;2.50;99.90;;;;;;5083946;28;20049;-76
2024/01/05 02:52:40;;;;;;;258.75;241.45;;;2.50;99.90;;;;;;5087186;28;20036;-76
2024/01/05 02:55:06;;;;;;;194.20;181.60;;;2.50;99.90;;;;;;5074000;28;20478;-76
2024/01/05 02:57:31;;;;;;;156.93;146.70;;;2.50;99.90;;;;;;5063324;28;20044;-77
2024/01/05 02:59:57;;;;;;;255.83;237.90;;;2.50;99.90;;;;;;5064314;28;20295;-74
2024/01/05 03:02:23;;;;;;;154.10;144.20;;;2.50;99.90;;;;;;5074974;28;20092;-75
2024/01/05 03:04:50;;;;;;;327.87;304.23;;;2.50;99.90;;;;;;5072259;28;20051;-74
2024/01/05 03:07:16;;;;;;;235.52;220.43;;;2.50;99.90;;;;;;5088354;28;20058;-74
2024/01/05 03:09:42;;;;;;;276.87;258.70;;;2.50;99.90;;;;;;5082474;28;20481;-75
2024/01/05 03:12:07;;;;;;;161.57;150.90;;;2.50;99.90;;;;;;5085172;28;20040;-75
2024/01/05 03:14:33;;;;;;;292.07;271.90;;;2.50;99.90;;;;;;5055437;28;20682;-75
2024/01/05 03:16:59;;;;;;;164.07;152.77;;;2.40;99.90;;;;;;5061559;28;20103;-75
2024/01/05 03:19:24;;;;;;;159.20;148.33;;;2.40;99.90;;;;;;5055859;28;20073;-75
2024/01/05 03:21:50;;;;;;;196.63;184.17;;;2.40;99.90;;;;;;5080216;28;20084;-75
2024/01/05 03:24:16;;;;;;;237.50;222.07;;;2.40;99.90;;;;;;5066194;28;20520;-75
2024/01/05 03:26:45;;;;;;;155.13;144.73;;;2.40;99.90;;;;;;5080664;28;20438;-75
2024/01/05 03:29:10;;;;;;;178.20;166.48;;;2.40;99.90;;;;;;5065101;28;20101;-74
2024/01/05 03:31:36;;;;;;;177.70;166.50;;;2.40;99.90;;;;;;5079900;28;20036;-74
2024/01/05 03:34:02;;;;;;;192.43;179.87;;;2.40;99.90;;;;;;5082270;28;20767;-74
2024/01/05 03:36:28;;;;;;;211.10;198.50;;;2.40;99.90;;;;;;5079076;28;20036;-74
2024/01/05 03:38:54;;;;;;;160.63;150.30;;;2.40;99.90;;;;;;5080730;28;20103;-75
2024/01/05 03:41:20;;;;;;;275.75;257.02;;;2.40;99.90;;;;;;5077602;28;20059;-75
2024/01/05 03:43:46;;;;;;;190.27;178.43;;;2.40;99.90;;;;;;5070362;28;20048;-74
2024/01/05 03:46:12;;;;;;;198.00;185.50;;;2.40;99.90;;;;;;5079819;28;20052;-75
2024/01/05 03:48:38;;;;;;;292.67;270.90;;;2.40;99.90;;;;;;5088368;28;20114;-75
2024/01/05 03:51:05;;;;;;;135.38;126.75;;;2.40;99.90;;;;;;5079933;28;20048;-75
2024/01/05 03:53:30;;;;;;;180.43;168.93;;;2.40;99.90;;;;;;5058195;28;20040;-75
2024/01/05 03:56:00;;;;;;;239.83;222.93;;;2.40;99.90;;;;;;5057570;28;20032;-75
2024/01/05 03:58:25;;;;;;;220.85;207.15;;;2.40;99.90;;;;;;5053495;28;20441;-75
2024/01/05 04:00:51;;;;;;;161.67;151.20;;;2.40;99.90;;;;;;5059297;28;20049;-75
2024/01/05 04:03:17;;;;;;;185.30;173.50;;;2.40;99.90;;;;;;5053788;28;20048;-76
2024/01/05 04:05:43;;;;;;;156.83;147.40;;;2.40;99.90;;;;;;5084714;28;20051;-75
2024/01/05 04:08:09;;;;;;;179.95;168.70;;;2.40;99.90;;;;;;5072927;28;20125;-75
2024/01/05 04:10:36;;;;;;;197.60;185.30;;;2.40;99.90;;;;;;5085169;28;20040;-75
2024/01/05 04:13:03;;;;;;;189.43;177.60;;;2.40;99.90;;;;;;5060278;28;20033;-75
2024/01/05 04:15:30;;;;;;;159.25;149.48;;;2.40;99.90;;;;;;5066252;28;20093;-74
2024/01/05 04:17:56;;;;;;;235.13;219.32;;;2.40;99.90;;;;;;5083743;28;20067;-75
2024/01/05 04:20:22;;;;;;;255.93;237.23;;;2.40;99.90;;;;;;5076104;28;20033;-75
2024/01/05 04:22:48;;;;;;;188.67;177.10;;;2.40;99.90;;;;;;5074805;28;20285;-75
2024/01/05 04:25:13;;;;;;;239.40;223.07;;;2.40;99.90;;;;;;5071541;28;20393;-75
2024/01/05 04:27:39;;;;;;;259.53;242.30;;;2.40;99.90;;;;;;5081977;28;20079;-75
2024/01/05 04:30:05;;;;;;;270.10;251.30;;;2.40;99.90;;;;;;5058445;28;20036;-75
2024/01/05 04:32:31;;;;;;;249.05;231.77;;;2.40;99.90;;;;;;5053720;28;20048;-75
2024/01/05 04:34:57;;;;;;;240.93;225.43;;;2.40;99.90;;;;;;5072216;28;20036;-75
2024/01/05 04:37:22;;;;;;;153.80;144.50;;;2.40;99.90;;;;;;5058730;28;20037;-75
2024/01/05 04:39:49;;;;;;;259.93;242.53;;;2.40;99.90;;;;;;5076558;28;20032;-74
2024/01/05 04:42:14;;;;;;;399.27;368.00;;;2.40;99.90;;;;;;5060624;28;20319;-75
2024/01/05 04:44:41;;;;;;;163.43;153.03;;;2.50;99.90;;;;;;5067833;28;20127;-75
2024/01/05 04:47:06;;;;;;;208.65;195.57;;;2.50;99.90;;;;;;5087579;28;20032;-75
2024/01/05 04:49:33;;;;;;;178.93;167.37;;;2.50;99.90;;;;;;5076725;28;20422;-75
2024/01/05 04:52:00;;;;;;;149.63;140.65;;;2.50;99.90;;;;;;5081782;28;20032;-75
2024/01/05 04:54:26;;;;;;;184.25;172.75;;;2.40;99.90;;;;;;5075438;28;20040;-75
2024/01/05 04:56:51;;;;;;;176.50;165.70;;;2.50;99.90;;;;;;5078425;28;20039;-75
2024/01/05 04:59:18;;;;;;;178.20;165.30;;;2.50;99.90;;;;;;5080711;28;20522;-75
2024/01/05 05:01:43;;;;;;;198.00;185.10;;;2.50;99.90;;;;;;5079480;28;20401;-75
2024/01/05 05:04:09;;;;;;;235.93;221.30;;;2.50;99.90;;;;;;5066544;28;20090;-75
2024/01/05 05:06:35;;;;;;;244.68;229.07;;;2.50;99.90;;;;;;5058865;28;20040;-75
2024/01/05 05:09:01;;;;;;;197.53;185.07;;;2.50;99.90;;;;;;5067360;28;20518;-75
2024/01/05 05:11:27;;;;;;;204.30;191.65;;;2.50;99.90;;;;;;5064984;28;20028;-75
2024/01/05 05:13:52;;;;;;;175.20;163.63;;;2.50;99.90;;;;;;5062133;28;20039;-75
2024/01/05 05:16:18;;;;;;;229.50;214.77;;;2.60;99.90;;;;;;5082853;28;20118;-75
2024/01/05 05:18:44;;;;;;;203.93;191.13;;;2.60;99.90;;;;;;5074255;28;20571;-75
2024/01/05 05:21:10;;;;;;;211.40;196.97;;;2.60;99.90;;;;;;5075567;28;20060;-75
2024/01/05 05:23:37;;;;;;;200.37;187.67;;;2.60;99.90;;;;;;5078103;28;20093;-75
2024/01/05 05:26:03;;;;;;;209.07;194.80;;;2.60;99.90;;;;;;5081578;28;20047;-75
2024/01/05 05:28:29;;;;;;;289.63;268.73;;;2.60;99.90;;;;;;5080035;28;20413;-75
2024/01/05 05:30:54;;;;;;;166.93;156.57;;;2.60;99.90;;;;;;5078801;28;20564;-75
2024/01/05 05:33:20;;;;;;;243.07;227.20;;;2.60;99.90;;;;;;5082259;28;20463;-75
2024/01/05 05:35:46;;;;;;;209.13;195.23;;;2.60;99.90;;;;;;5080160;28;20544;-75
2024/01/05 05:38:11;;;;;;;248.07;232.17;;;2.70;99.90;;;;;;5077850;28;20028;-75
2024/01/05 05:40:37;;;;;;;221.07;206.87;;;2.70;99.90;;;;;;5060518;28;20429;-75
2024/01/05 05:43:03;;;;;;;257.93;239.97;;;2.70;99.90;;;;;;5060341;28;20049;-75
2024/01/05 05:45:28;;;;;;;210.50;196.90;;;2.60;99.90;;;;;;5066592;28;20051;-75
2024/01/05 05:47:54;;;;;;;185.63;173.20;;;2.70;99.90;;;;;;5084168;28;20055;-75
2024/01/05 05:50:20;;;;;;;264.63;245.57;;;2.70;99.90;;;;;;5086785;28;20119;-75
2024/01/05 05:52:47;;;;;;;236.73;219.87;;;2.70;99.90;;;;;;5073262;28;20036;-75
2024/01/05 05:55:12;;;;;;;175.55;163.98;;;2.70;99.90;;;;;;5084622;28;20036;-75
2024/01/05 05:57:41;;;;;;;221.77;207.13;;;2.70;99.90;;;;;;5057666;28;20093;-75
2024/01/05 06:00:08;;;;;;;308.15;286.35;;;2.70;99.90;;;;;;5075193;28;20080;-75
2024/01/05 06:02:34;;;;;;;198.50;185.43;;;2.70;99.90;;;;;;5084427;28;20517;-75
2024/01/05 06:05:00;;;;;;;179.37;167.27;;;2.70;99.90;;;;;;5073801;28;20082;-75
2024/01/05 06:07:25;;;;;;;179.17;167.33;;;2.70;99.90;;;;;;5074480;28;20039;-75
2024/01/05 06:09:51;;;;;;;145.47;135.13;;;2.70;99.90;;;;;;5079531;28;20289;-75
2024/01/05 06:12:17;;;;;;;169.30;157.67;;;2.70;99.90;;;;;;5083998;28;20550;-75
2024/01/05 06:14:44;;;;;;;128.68;119.45;;;2.70;99.90;;;;;;5065894;28;20405;-75
2024/01/05 06:17:10;;;;;;;237.98;222.05;;;2.80;99.90;;;;;;5061051;28;20036;-75
2024/01/05 06:19:36;;;;;;;216.27;201.87;;;2.80;99.90;;;;;;5065291;28;20032;-75
2024/01/05 06:22:01;;;;;;;138.70;128.67;;;2.80;99.90;;;;;;5060078;28;20147;-75
2024/01/05 06:24:29;;;;;;;289.67;269.20;;;2.80;99.90;;;;;;5058781;28;20066;-75
2024/01/05 06:26:54;;;;;;;207.55;193.18;;;2.80;99.90;;;;;;5080702;28;20079;-75
2024/01/05 06:29:20;;;;;;;139.70;130.20;;;2.90;99.90;;;;;;5070096;28;20063;-75
2024/01/05 06:31:46;;;;;;;140.83;131.37;;;2.90;99.90;;;;;;5086541;28;20040;-75
2024/01/05 06:34:11;;;;;;;200.10;186.73;;;2.90;99.90;;;;;;5086211;28;20036;-75
2024/01/05 06:36:37;;;;;;;191.77;179.73;;;2.90;99.90;;;;;;5070728;28;20119;-74
2024/01/05 06:39:03;;;;;;;207.70;194.00;;;2.90;99.90;;;;;;5071143;28;20379;-75
2024/01/05 06:41:28;;;;;;;230.73;215.77;;;2.90;99.90;;;;;;5083142;28;20079;-75
2024/01/05 06:43:54;;;;;;;211.57;197.53;;;2.90;99.90;;;;;;5062097;28;20067;-75
2024/01/05 06:46:20;;;;;;;263.10;245.07;;;3.00;99.90;;;;;;5059005;28;20139;-75
2024/01/05 06:48:45;;;;;;;165.30;154.17;;;3.00;99.90;;;;;;5078048;28;20124;-75
2024/01/05 06:51:11;;;;;;;173.27;161.07;;;3.00;99.90;;;;;;5089470;28;20040;-75
2024/01/05 06:53:37;;;;;;;224.47;209.30;;;3.00;99.90;;;;;;5074159;28;20040;-75
2024/01/05 06:56:03;;;;;;;159.33;148.27;;;3.00;99.90;;;;;;5057581;28;20071;-75
2024/01/05 06:58:29;;;;;;;152.50;142.20;;;3.00;99.90;;;;;;5070978;28;20072;-75
2024/01/05 07:00:55;;;;;;;219.50;204.70;;;3.00;99.90;;;;;;5075704;28;20189;-75
2024/01/05 07:03:21;;;;;;;271.53;252.90;;;3.10;99.90;;;;;;5072010;28;20099;-75
2024/01/05 07:05:46;;;;;;;187.67;175.30;;;3.10;99.90;;;;;;5073447;28;20122;-76
2024/01/05 07:08:12;;;;;;;199.00;186.13;;;3.10;99.90;;;;;;5073275;28;20787;-75
2024/01/05 07:10:38;;;;;;;187.67;174.73;;;3.10;99.90;;;;;;5058744;28;20072;-75
2024/01/05 07:13:07;;;;;;;219.93;204.73;;;3.10;99.90;;;;;;5057051;28;20316;-75
2024/01/05 07:15:33;;;;;;;177.40;165.27;;;3.10;99.90;;;;;;5079621;28;21301;-75
2024/01/05 07:17:58;;;;;;;200.60;186.87;;;3.10;99.90;;;;;;5075756;28;20506;-75
2024/01/05 07:20:24;;;;;;;156.33;145.07;;;3.10;99.90;;;;;;5081843;28;20339;-75
2024/01/05 07:22:50;;;;;;;207.57;193.87;;;3.10;99.90;;;;;;5082366;28;20071;-75
2024/01/05 07:25:15;;;;;;;157.07;146.40;;;3.10;99.90;;;;;;5073836;28;20131;-75
2024/01/05 07:27:41;;;;;;;262.00;243.37;;;3.10;99.90;;;;;;5063721;28;20052;-76
2024/01/05 07:30:07;;;;;;;205.93;191.80;;;3.10;99.90;;;;;;5058090;28;20040;-75
2024/01/05 07:32:33;;;;;;;168.43;156.70;;;3.20;99.90;;;;;;5057343;28;20106;-76
2024/01/05 07:34:59;;;;;;;229.20;213.60;;;3.20;99.90;;;;;;5059799;28;20123;-75
2024/01/05 07:37:25;;;;;;;231.20;214.53;;;3.20;99.90;;;;;;5076358;28;20347;-76
2024/01/05 07:39:51;;;;;;;158.17;146.57;;;3.20;99.90;;;;;;5052885;28;20383;-75
2024/01/05 07:42:16;;;;;;;133.87;124.10;;;3.20;99.90;;;;;;5056196;28;20154;-75
2024/01/05 07:44:42;;;;;;;161.30;150.00;;;3.20;99.90;;;;;;5079221;28;20029;-75
2024/01/05 07:47:09;;;;;;;218.37;203.60;;;3.20;99.90;;;;;;5077876;28;20068;-75
2024/01/05 07:49:35;;;;;;;221.95;206.55;;;3.30;99.90;;;;;;5065547;28;20065;-75
2024/01/05 07:52:01;;;;;;;175.35;163.35;;;3.30;99.90;;;;;;5057979;28;20040;-75
2024/01/05 07:54:26;;;;;;;219.30;204.37;;;3.30;99.90;;;;;;5079197;28;20123;-75
2024/01/05 07:56:52;;;;;;;201.23;186.90;;;3.30;99.90;;;;;;5071030;28;20033;-75
2024/01/05 07:59:18;;;;;;;299.47;277.43;;;3.30;99.90;;;;;;5080417;28;20075;-76
2024/01/05 08:01:43;;;;;;;156.40;145.53;;;3.30;99.90;;;;;;5057097;28;20663;-76
2024/01/05 08:04:09;;;;;;;201.40;187.93;;;3.30;99.90;;;;;;5063286;28;20043;-75
2024/01/05 08:06:35;;;;;;;200.20;186.40;;;3.40;99.90;;;;;;5073009;28;20040;-75
2024/01/05 08:09:01;;;;;;;127.80;118.47;;;3.40;99.90;;;;;;5078051;28;20028;-76
2024/01/05 08:11:26;;;;;;;177.67;165.10;;;3.40;99.90;;;;;;5062056;28;20194;-76
2024/01/05 08:13:52;;;;;;;189.07;175.63;;;3.40;99.90;;;;;;5060468;28;20036;-77
2024/01/05 08:16:18;;;;;;;164.40;152.23;;;3.40;99.90;;;;;;5088060;28;20494;-77
2024/01/05 08:18:44;;;;;;;268.97;250.03;;;3.40;99.90;;;;;;5088630;28;20036;-77
2024/01/05 08:21:09;;;;;;;211.83;197.53;;;3.40;99.90;;;;;;5080048;28;20060;-77
2024/01/05 08:23:36;;;;;;;215.63;201.00;;;3.40;99.90;;;;;;5078137;28;20042;-77
2024/01/05 08:26:05;;;;;;;195.30;181.18;;;3.40;99.90;;;;;;5073293;28;20376;-77
2024/01/05 08:28:30;;;;;;;224.18;208.05;;;3.50;99.90;;;;;;5077150;28;20062;-77
2024/01/05 08:30:57;;;;;;;229.77;214.20;;;3.50;99.90;;;;;;5057801;28;20395;-77
2024/01/05 08:33:22;;;;;;;233.90;218.05;;;3.50;99.90;;;;;;5071893;28;20427;-77
2024/01/05 08:35:48;;;;;;;227.97;211.97;;;3.60;99.90;;;;;;5062462;28;20123;-77
2024/01/05 08:38:14;;;;;;;231.40;215.23;;;3.60;99.90;;;;;;5083629;28;20550;-77
2024/01/05 08:40:40;;;;;;;223.97;208.87;;;3.70;99.90;;;;;;5056514;28;20036;-77
2024/01/05 08:43:06;;;;;;;194.10;180.35;;;3.70;99.90;;;;;;5079795;28;20040;-77
2024/01/05 08:45:34;;;;;;;174.50;162.23;;;3.70;99.90;;;;;;5070440;28;20431;-77
2024/01/05 08:48:00;;;;;;;200.05;186.52;;;3.70;99.90;;;;;;5056057;28;20094;-77
2024/01/05 08:50:26;;;;;;;197.70;184.07;;;3.70;99.90;;;;;;5063504;28;20044;-76
2024/01/05 08:52:52;;;;;;;204.97;191.00;;;3.80;99.90;;;;;;5071488;28;20040;-76
2024/01/05 08:55:18;;;;;;;210.43;195.70;;;3.80;99.90;;;;;;5079580;28;20489;-76
2024/01/05 08:57:44;;;;;;;169.13;157.53;;;3.80;99.90;;;;;;5078507;28;20039;-77
2024/01/05 09:00:10;;;;;;;226.63;210.40;;;3.80;99.90;;;;;;5072919;28;20374;-77
2024/01/05 09:02:36;;;;;;;258.77;240.75;;;3.90;99.90;;;;;;5078881;28;20049;-76
2024/01/05 09:05:05;;;;;;;176.68;164.00;;;3.90;99.90;;;;;;5056566;28;20382;-78
2024/01/05 09:07:32;;;;;;;173.20;160.80;;;3.90;99.90;;;;;;5060011;28;20128;-78
2024/01/05 09:09:57;;;;;;;189.85;176.75;;;3.90;99.90;;;;;;5072504;28;20040;-78
2024/01/05 09:12:23;;;;;;;286.73;267.43;;;4.00;99.90;;;;;;5058112;28;20073;-77
2024/01/05 09:14:49;;;;;;;213.67;198.97;;;4.00;99.90;;;;;;5070955;28;20051;-77
2024/01/05 09:17:15;;;;;;;201.60;187.70;;;4.00;99.90;;;;;;5060021;28;20044;-76
2024/01/05 09:19:40;;;;;;;162.67;151.13;;;4.00;99.90;;;;;;5068544;28;20539;-77
2024/01/05 09:22:07;;;;;;;147.13;137.00;;;4.00;99.90;;;;;;5075438;28;20317;-77
2024/01/05 09:24:33;;;;;;;221.27;207.02;;;4.00;99.90;;;;;;5074508;28;20044;-77
2024/01/05 09:27:02;;;;;;;147.05;137.43;;;4.10;99.90;;;;;;5068981;28;20045;-77
2024/01/05 09:29:29;;;;;;;187.43;175.00;;;4.10;99.90;;;;;;5051770;28;20064;-77
2024/01/05 09:31:55;;;;;;;192.00;179.13;;;4.10;99.90;;;;;;5063535;28;20540;-78
2024/01/05 09:34:21;;;;;;;154.50;144.10;;;4.10;99.90;;;;;;5079503;28;20035;-77
2024/01/05 09:36:47;;;;;;;218.87;203.67;;;4.10;99.90;;;;;;5070948;28;20562;-78
2024/01/05 09:39:13;;;;;;;168.95;157.77;;;4.10;99.90;;;;;;5055187;28;20073;-77
2024/01/05 09:41:45;;;;;;;188.35;175.20;;;4.10;99.90;;;;;;5077753;28;20040;-77
2024/01/05 09:44:12;;;;;;;189.07;176.73;;;4.10;99.90;;;;;;5071470;28;20109;-77
2024/01/05 09:46:42;;;;;;;161.13;149.80;;;4.10;99.90;;;;;;5062140;28;20455;-77
2024/01/05 09:49:08;;;;;;;111.68;103.47;;;4.20;99.90;;;;;;5071418;28;20032;-77
2024/01/05 09:51:35;;;;;;;121.97;112.90;;;4.10;99.90;;;;;;5069261;28;20222;-77
2024/01/05 09:54:01;;;;;;;218.40;204.25;;;4.10;99.90;;;;;;5052142;28;20028;-77
2024/01/05 09:56:28;;;;;;;123.30;114.45;;;4.20;99.90;;;;;;5057700;28;20059;-77
2024/01/05 09:58:55;;;;;;;153.75;143.00;;;4.20;99.90;;;;;;5054696;28;20044;-77
2024/01/05 10:01:28;;;;;;;183.98;171.13;;;4.20;99.90;;;;;;5074196;28;20059;-77
2024/01/05 10:04:03;;;;;;;227.88;213.23;;;4.20;99.90;;;;;;5074246;28;20059;-76
2024/01/05 10:06:30;;;;;;;153.50;141.80;;;4.30;99.90;;;;;;5059265;28;20051;-77
2024/01/05 10:09:00;;;;;;;208.77;194.48;;;4.30;99.90;;;;;;5071387;28;20807;-76
2024/01/05 10:11:34;;;;;;;161.68;150.05;;;4.30;99.90;;;;;;5053664;28;20064;-77
2024/01/05 10:14:03;;;;;;;165.75;154.60;;;4.30;99.90;;;;;;5066325;28;20145;-77
2024/01/05 10:16:43;;;;;;;241.75;225.75;;;4.30;99.90;;;;;;5071342;28;20367;-77
2024/01/05 10:19:16;;;;;;;203.63;189.98;;;4.30;99.90;;;;;;5052605;28;20529;-76
2024/01/05 10:21:43;;;;;;;216.20;201.10;;;4.40;99.90;;;;;;5072477;28;20497;-76
2024/01/05 10:24:22;;;;;;;158.82;147.98;;;4.40;99.90;;;;;;5050958;28;20049;-77
2024/01/05 10:27:05;;;;;;;220.55;205.27;;;4.40;99.90;;;;;;5077510;28;20513;-77
2024/01/05 10:29:38;;;;;;;187.18;174.13;;;4.40;99.90;;;;;;5076349;28;20161;-77
2024/01/05 10:32:18;;;;;;;199.23;186.35;;;4.40;99.90;;;;;;5063604;28;20064;-77
2024/01/05 10:34:46;;;;;;;208.50;193.80;;;4.50;99.90;;;;;;5064619;28;20123;-77
2024/01/05 10:37:14;;;;;;;162.77;151.82;;;4.50;99.90;;;;;;5055010;28;20054;-76
2024/01/05 10:39:48;;;;;;;228.68;213.93;;;4.60;99.90;;;;;;5057806;28;20040;-77
2024/01/05 10:42:21;;;;;;;167.65;156.15;;;4.60;99.90;;;;;;5055457;28;20532;-77
2024/01/05 10:44:55;;;;;;;218.38;204.00;;;4.60;99.90;;;;;;5067502;28;20536;-77
2024/01/05 10:47:30;;;;;;;184.73;172.35;;;4.70;99.90;;;;;;5069713;28;20072;-77
2024/01/05 10:49:56;;;;;;;120.57;112.05;;;4.70;99.90;;;;;;5077003;28;20123;-76
2024/01/05 10:52:24;;;;;;;104.83;97.57;;;4.60;99.90;;;;;;5072619;28;20119;-77
2024/01/05 10:54:52;;;;;;;137.88;128.05;;;4.60;99.90;;;;;;5071183;28;20044;-77
2024/01/05 10:57:19;;;;;;;131.35;122.50;;;4.70;99.90;;;;;;5071150;28;20048;-76
2024/01/05 10:59:49;;;;;;;180.00;168.45;;;4.70;99.90;;;;;;5077262;28;20040;-76
2024/01/05 11:02:21;;;;;;;155.68;144.88;;;4.70;99.90;;;;;;5060535;28;20056;-77
2024/01/05 11:05:13;;;;;;;158.07;147.98;;;4.70;99.90;;;;;;5052396;28;20036;-77
2024/01/05 11:07:41;;;;;;;143.90;134.38;;;4.80;99.90;;;;;;5047004;28;20058;-77
2024/01/05 11:10:24;;;;;;;239.75;223.98;;;4.80;99.90;;;;;;5071559;28;20464;-76
2024/01/05 11:13:09;;;;;;;250.88;234.90;;;4.80;99.90;;;;;;5070716;28;20040;-76
2024/01/05 11:15:40;;;;;;;221.10;206.45;;;4.90;99.90;;;;;;5073690;28;20513;-75
2024/01/05 11:18:22;;;;;;;194.65;181.75;;;4.90;99.90;;;;;;5074371;28;20036;-76
2024/01/05 11:21:28;;;;;;;214.35;199.85;;;5.00;99.90;;;;;;5056759;28;20055;-76
2024/01/05 11:23:55;;;;;;;213.25;199.32;;;5.00;99.90;;;;;;5072129;28;20145;-76
2024/01/05 11:26:30;;;;;;;241.70;224.77;;;5.00;99.90;;;;;;5073086;28;20051;-76
2024/01/05 11:28:56;;;;;;;275.02;257.00;;;5.00;99.90;;;;;;5071324;28;20120;-76
2024/01/05 11:31:47;;;;;;;213.50;198.57;;;5.10;99.90;;;;;;5053469;28;20120;-76
2024/01/05 11:34:34;;;;;;;305.92;285.30;;;5.10;99.90;;;;;;5077614;28;20032;-77
2024/01/05 11:37:00;;;;;;;193.68;181.00;;;5.20;99.90;;;;;;5055451;28;20036;-77
2024/01/05 11:39:45;;;;;;;280.35;260.35;;;5.20;99.90;;;;;;5071670;28;20094;-77
2024/01/05 11:42:23;;;;;;;158.25;148.13;;;5.20;99.90;;;;;;5074366;28;20099;-77
2024/01/05 11:44:49;;;;;;;228.52;214.07;;;5.20;99.90;;;;;;5058450;28;20499;-77
2024/01/05 11:47:46;;;;;;;263.33;246.17;;;5.20;99.90;;;;;;5061524;28;20049;-77
2024/01/05 11:50:35;;;;;;;203.57;190.88;;;5.20;99.90;;;;;;5069901;28;20301;-76
2024/01/05 11:53:14;;;;;;;143.40;132.95;;;5.20;99.90;;;;;;5077823;28;20043;-76
2024/01/05 11:55:51;;;;;;;167.25;156.80;;;5.20;99.90;;;;;;5081768;28;20044;-76
2024/01/05 11:58:21;;;;;;;165.10;154.55;;;5.20;99.90;;;;;;5073713;28;20041;-76
2024/01/05 12:00:55;;;;;;;293.98;274.65;;;5.20;99.90;;;;;;5076935;28;20055;-76
2024/01/05 12:03:23;;;;;;;275.50;257.02;;;5.20;99.90;;;;;;5071490;28;20045;-76
2024/01/05 12:05:51;;;;;;;195.68;182.60;;;5.20;99.90;;;;;;5081141;28;20124;-76
2024/01/05 12:08:17;;;;;;;240.00;224.38;;;5.20;99.90;;;;;;5058619;28;20143;-76
2024/01/05 12:10:43;;;;;;;238.35;222.43;;;5.20;99.90;;;;;;5070851;28;20063;-75
2024/01/05 12:13:09;;;;;;;230.00;214.00;;;5.20;99.90;;;;;;5072177;28;20029;-76
2024/01/05 12:15:35;;;;;;;230.50;214.90;;;5.30;99.90;;;;;;5069841;28;20036;-76
2024/01/05 12:18:08;;;;;;;269.15;250.82;;;5.30;99.90;;;;;;5052428;28;20111;-76
2024/01/05 12:20:34;;;;;;;263.83;246.48;;;5.30;99.90;;;;;;5075908;28;20048;-76